Time;durP1;ratioP1;P1;durP2;ratioP2;P2;SDS_P1;SDS_P2;PMS_P1;PMS_P2;Temp;Humidity;BMP_temperature;BMP_pressure;BME280_temperature;BME280_humidity;BME280_pressure;Samples;Min_cycle;Max_cycle;Signal;HPM_P1;HPM_P2
2022/08/31 00:06:07;;;;;;;;;;;;;;;18.23;68.54;99260.74;1692445;82;20455;-72
2022/08/31 00:08:33;;;;;;;;;;;;;;;18.25;68.72;99260.54;1720132;82;21155;-72
2022/08/31 00:11:00;;;;;;;;;;;;;;;18.29;68.80;99263.06;1709521;82;20129;-72
2022/08/31 00:13:28;;;;;;;;;;;;;;;18.33;68.84;99256.17;1710911;83;20435;-69
2022/08/31 00:15:54;;;;;;;;;;;;;;;18.35;68.87;99261.63;1690946;84;20085;-71
2022/08/31 00:18:21;;;;;;;;;;;;;;;18.40;68.92;99268.53;1703781;82;20128;-72
2022/08/31 00:20:48;;;;;;;;;;;;;;;18.45;68.97;99267.84;1714644;82;21145;-72
2022/08/31 00:23:15;;;;;;;;;;;;;;;18.49;68.93;99263.67;1686794;84;20436;-69
2022/08/31 00:25:43;;;;;;;;;;;;;;;18.53;68.98;99268.92;1702824;84;20137;-70
2022/08/31 00:28:10;;;;;;;;;;;;;;;18.58;68.91;99268.23;1703004;84;20090;-70
2022/08/31 00:30:36;;;;;;;;;;;;;;;18.61;68.80;99267.78;1703465;83;20096;-69
2022/08/31 00:33:03;;;;;;;;;;;;;;;18.62;68.77;99260.81;1683878;83;21812;-71
2022/08/31 00:35:31;;;;;;;;;;;;;;;18.64;68.80;99255.22;1702870;84;20094;-71
2022/08/31 00:37:58;;;;;;;;;;;;;;;18.64;68.88;99254.66;1702871;84;20109;-71
2022/08/31 00:40:25;;;;;;;;;;;;;;;18.66;68.79;99250.41;1677014;84;20117;-71
2022/08/31 00:42:51;;;;;;;;;;;;;;;18.65;68.73;99249.59;1682759;83;20156;-73
2022/08/31 00:45:17;;;;;;;;;;;;;;;18.67;68.75;99242.61;1695316;84;21145;-72
2022/08/31 00:47:44;;;;;;;;;;;;;;;18.70;68.59;99247.55;1710524;83;20097;-72
2022/08/31 00:50:12;;;;;;;;;;;;;;;18.73;68.48;99248.45;1710601;82;20226;-71
2022/08/31 00:52:40;;;;;;;;;;;;;;;18.75;68.48;99247.69;1707637;82;20109;-70
2022/08/31 00:55:12;;;;;;;;;;;;;;;18.76;68.48;99243.95;1710372;84;20099;-71
2022/08/31 00:57:40;;;;;;;;;;;;;;;18.79;68.33;99247.55;1699527;84;21884;-70
2022/08/31 01:00:10;;;;;;;;;;;;;;;18.80;68.34;99245.95;1674546;84;20427;-71
2022/08/31 01:02:36;;;;;;;;;;;;;;;18.81;68.26;99237.34;1707611;82;20183;-72
2022/08/31 01:05:03;;;;;;;;;;;;;;;18.82;68.09;99236.31;1710842;84;20117;-69
2022/08/31 01:07:30;;;;;;;;;;;;;;;18.84;68.10;99232.85;1710681;83;20407;-70
2022/08/31 01:09:56;;;;;;;;;;;;;;;18.82;68.13;99234.41;1709930;82;21142;-73
2022/08/31 01:12:23;;;;;;;;;;;;;;;18.81;68.16;99230.61;1713623;82;20089;-71
2022/08/31 01:14:49;;;;;;;;;;;;;;;18.81;68.08;99227.92;1676177;84;20137;-70
2022/08/31 01:17:16;;;;;;;;;;;;;;;18.80;68.08;99222.22;1698554;84;20085;-72
2022/08/31 01:19:58;;;;;;;;;;;;;;;18.78;68.18;99224.33;1698667;83;20133;-71
2022/08/31 01:22:57;;;;;;;;;;;;;;;18.77;68.20;99221.36;1682492;84;21135;-70
2022/08/31 01:25:24;;;;;;;;;;;;;;;18.74;68.27;99223.16;1698533;84;20129;-70
2022/08/31 01:27:50;;;;;;;;;;;;;;;18.72;68.43;99227.41;1698610;84;20420;-72
2022/08/31 01:30:22;;;;;;;;;;;;;;;18.72;68.46;99229.30;1698564;84;20074;-71
2022/08/31 01:32:48;;;;;;;;;;;;;;;18.70;68.57;99225.99;1681648;84;20093;-70
2022/08/31 01:35:14;;;;;;;;;;;;;;;18.69;68.71;99229.23;1697624;84;21135;-73
2022/08/31 01:37:41;;;;;;;;;;;;;;;18.69;68.91;99236.49;1698635;84;20095;-71
2022/08/31 01:40:09;;;;;;;;;;;;;;;18.68;69.04;99240.23;1698576;84;20146;-70
2022/08/31 01:42:35;;;;;;;;;;;;;;;18.68;69.21;99232.14;1691470;84;20112;-70
2022/08/31 01:45:03;;;;;;;;;;;;;;;18.67;69.31;99235.88;1694833;84;20165;-71
2022/08/31 01:47:30;;;;;;;;;;;;;;;18.68;69.40;99233.48;1688210;84;21888;-71
2022/08/31 01:49:56;;;;;;;;;;;;;;;18.70;69.42;99242.16;1698529;84;20450;-71
2022/08/31 01:52:23;;;;;;;;;;;;;;;18.70;69.42;99242.16;1697742;84;20141;-70
2022/08/31 01:54:49;;;;;;;;;;;;;;;18.70;69.41;99236.77;1683747;84;20206;-70
2022/08/31 01:57:16;;;;;;;;;;;;;;;18.69;69.44;99231.94;1691380;84;20152;-70
2022/08/31 01:59:47;;;;;;;;;;;;;;;18.69;69.45;99233.80;1651330;84;21168;-71
2022/08/31 02:02:21;;;;;;;;;;;;;;;18.66;69.53;99232.39;1689984;84;20179;-69
2022/08/31 02:04:48;;;;;;;;;;;;;;;18.65;69.60;99232.59;1686348;84;20093;-70
2022/08/31 02:07:15;;;;;;;;;;;;;;;18.63;69.77;99235.53;1684659;84;20136;-70
2022/08/31 02:09:41;;;;;;;;;;;;;;;18.64;69.82;99235.01;1698244;84;20478;-69
2022/08/31 02:12:08;;;;;;;;;;;;;;;18.66;69.82;99234.25;1697629;83;21211;-69
2022/08/31 02:14:35;;;;;;;;;;;;;;;18.66;69.91;99234.25;1708669;83;20083;-69
2022/08/31 02:17:02;;;;;;;;;;;;;;;18.67;69.94;99234.53;1718183;83;20492;-69
2022/08/31 02:19:28;;;;;;;;;;;;;;;18.67;69.93;99231.31;1703731;82;20106;-70
2022/08/31 02:21:55;;;;;;;;;;;;;;;18.66;69.94;99229.69;1703291;84;20126;-72
2022/08/31 02:24:22;;;;;;;;;;;;;;;18.65;70.05;99229.90;1703133;83;21239;-71
2022/08/31 02:26:48;;;;;;;;;;;;;;;18.66;70.10;99231.04;1707341;83;20096;-71
2022/08/31 02:29:16;;;;;;;;;;;;;;;18.68;70.08;99230.80;1697097;82;20116;-68
2022/08/31 02:31:43;;;;;;;;;;;;;;;18.68;70.08;99233.48;1705387;83;20193;-67
2022/08/31 02:34:10;;;;;;;;;;;;;;;18.70;70.18;99230.03;1703160;83;20457;-68
2022/08/31 02:36:38;;;;;;;;;;;;;;;18.71;70.23;99229.83;1702569;83;21116;-68
2022/08/31 02:39:04;;;;;;;;;;;;;;;18.72;70.21;99232.80;1701446;83;20151;-69
2022/08/31 02:41:33;;;;;;;;;;;;;;;18.73;70.23;99230.41;1702229;84;20155;-69
2022/08/31 02:43:59;;;;;;;;;;;;;;;18.75;70.25;99228.82;1703248;84;20122;-72
2022/08/31 02:46:27;;;;;;;;;;;;;;;18.74;70.27;99229.89;1703519;83;20139;-68
2022/08/31 02:48:55;;;;;;;;;;;;;;;18.73;70.35;99227.72;1703796;82;21175;-69
2022/08/31 02:51:21;;;;;;;;;;;;;;;18.74;70.26;99219.95;1696198;83;20463;-69
2022/08/31 02:53:49;;;;;;;;;;;;;;;18.75;70.31;99225.61;1686467;84;20078;-69
2022/08/31 02:56:16;;;;;;;;;;;;;;;18.74;70.32;99226.68;1703230;84;20094;-69
2022/08/31 02:58:42;;;;;;;;;;;;;;;18.73;70.34;99226.38;1689221;83;20117;-70
2022/08/31 03:01:08;;;;;;;;;;;;;;;18.71;70.49;99230.34;1703128;84;22156;-69
2022/08/31 03:03:35;;;;;;;;;;;;;;;18.68;70.57;99222.72;1708563;83;20108;-69
2022/08/31 03:06:02;;;;;;;;;;;;;;;18.67;70.62;99221.88;1703219;84;20134;-69
2022/08/31 03:08:29;;;;;;;;;;;;;;;18.69;70.72;99232.45;1703273;84;20094;-70
2022/08/31 03:10:55;;;;;;;;;;;;;;;18.71;70.72;99234.38;1683843;83;20435;-69
2022/08/31 03:13:22;;;;;;;;;;;;;;;18.72;70.79;99234.14;1710358;83;21158;-71
2022/08/31 03:15:48;;;;;;;;;;;;;;;18.75;70.84;99235.56;1697119;83;20106;-71
2022/08/31 03:18:15;;;;;;;;;;;;;;;18.78;70.87;99233.23;1704253;83;20086;-70
2022/08/31 03:20:42;;;;;;;;;;;;;;;18.80;70.83;99231.66;1699396;83;20440;-70
2022/08/31 03:23:08;;;;;;;;;;;;;;;18.83;70.84;99233.89;1703112;83;20122;-71
2022/08/31 03:25:35;;;;;;;;;;;;;;;18.85;70.79;99230.47;1703308;84;21717;-71
2022/08/31 03:28:01;;;;;;;;;;;;;;;18.86;70.79;99234.79;1693179;83;20120;-70
2022/08/31 03:30:29;;;;;;;;;;;;;;;18.87;70.87;99231.05;1719279;82;20086;-69
2022/08/31 03:32:57;;;;;;;;;;;;;;;18.89;70.90;99230.30;1698019;83;20098;-69
2022/08/31 03:35:24;;;;;;;;;;;;;;;18.90;70.85;99230.59;1697726;84;20130;-70
2022/08/31 03:37:50;;;;;;;;;;;;;;;18.91;70.87;99233.05;1699997;83;21844;-69
2022/08/31 03:40:16;;;;;;;;;;;;;;;18.92;70.91;99235.23;1718180;82;20105;-70
2022/08/31 03:42:43;;;;;;;;;;;;;;;18.96;70.86;99229.66;1705026;83;20448;-69
2022/08/31 03:45:10;;;;;;;;;;;;;;;19.01;70.76;99237.88;1697618;84;20167;-71
2022/08/31 03:47:38;;;;;;;;;;;;;;;19.04;70.54;99237.42;1697646;84;20098;-69
2022/08/31 03:50:06;;;;;;;;;;;;;;;19.07;70.39;99243.19;1689178;83;21157;-70
2022/08/31 03:52:38;;;;;;;;;;;;;;;19.07;70.34;99252.63;1685473;84;20118;-69
2022/08/31 03:55:09;;;;;;;;;;;;;;;19.09;70.43;99253.20;1697918;83;20472;-69
2022/08/31 03:57:38;;;;;;;;;;;;;;;19.13;70.45;99252.23;1681203;84;20088;-70
2022/08/31 04:00:05;;;;;;;;;;;;;;;19.15;70.34;99254.16;1689760;83;20084;-69
2022/08/31 04:02:41;;;;;;;;;;;;;;;19.20;70.27;99250.77;1681401;84;22291;-70
2022/08/31 04:05:27;;;;;;;;;;;;;;;19.23;70.11;99258.40;1697516;84;20102;-68
2022/08/31 04:08:12;;;;;;;;;;;;;;;19.25;70.05;99246.84;1697712;84;20185;-70
2022/08/31 04:10:49;;;;;;;;;;;;;;;19.27;70.04;99255.00;1697453;83;20111;-69
2022/08/31 04:13:26;;;;;;;;;;;;;;;19.29;70.00;99248.88;1695370;84;20106;-70
2022/08/31 04:16:00;;;;;;;;;;;;;;;19.33;69.84;99259.48;1695527;84;21316;-71
2022/08/31 04:18:36;;;;;;;;;;;;;;;19.36;69.78;99256.32;1673654;84;20167;-70
2022/08/31 04:21:04;;;;;;;;;;;;;;;19.40;69.65;99252.64;1695105;83;20086;-73
2022/08/31 04:23:30;;;;;;;;;;;;;;;19.43;69.55;99255.71;1703056;84;20425;-70
2022/08/31 04:25:57;;;;;;;;;;;;;;;19.45;69.53;99257.64;1702806;84;20180;-70
2022/08/31 04:28:24;;;;;;;;;;;;;;;19.50;69.42;99258.31;1702946;84;21773;-68
2022/08/31 04:30:50;;;;;;;;;;;;;;;19.52;69.31;99259.72;1692952;83;20141;-70
2022/08/31 04:33:16;;;;;;;;;;;;;;;19.57;69.12;99257.15;1702853;84;20095;-70
2022/08/31 04:35:43;;;;;;;;;;;;;;;19.61;69.01;99266.41;1705785;83;20139;-70
2022/08/31 04:38:09;;;;;;;;;;;;;;;19.65;68.83;99266.25;1703586;83;20110;-70
2022/08/31 04:40:39;;;;;;;;;;;;;;;19.70;68.66;99266.37;1702833;83;21159;-70
2022/08/31 04:43:06;;;;;;;;;;;;;;;19.73;68.54;99273.97;1692690;83;20122;-70
2022/08/31 04:45:33;;;;;;;;;;;;;;;19.77;68.46;99268.94;1705826;83;20195;-70
2022/08/31 04:47:59;;;;;;;;;;;;;;;19.83;68.29;99269.36;1708075;82;20439;-71
2022/08/31 04:50:26;;;;;;;;;;;;;;;19.84;68.20;99268.28;1702850;84;20090;-71
2022/08/31 04:53:08;;;;;;;;;;;;;;;19.86;68.12;99272.11;1682764;83;21171;-70
2022/08/31 04:55:38;;;;;;;;;;;;;;;19.86;68.07;99274.81;1702851;84;20078;-70
2022/08/31 04:58:05;;;;;;;;;;;;;;;19.87;68.15;99275.09;1686525;84;20088;-71
2022/08/31 05:00:31;;;;;;;;;;;;;;;19.93;68.15;99280.91;1697947;84;20601;-69
2022/08/31 05:03:17;;;;;;;;;;;;;;;19.97;68.18;99278.84;1682338;84;20443;-70
2022/08/31 05:05:51;;;;;;;;;;;;;;;20.06;68.03;99279.31;1708663;83;20587;-70
2022/08/31 05:08:13;;;;;;;;;;;;;;;20.14;67.82;99278.44;1709379;84;20152;-70
2022/08/31 05:10:40;;;;;;;;;;;;;;;20.19;67.53;99275.02;1699592;82;20117;-70
2022/08/31 05:13:07;;;;;;;;;;;;;;;20.25;67.46;99278.16;1693507;82;20440;-70
2022/08/31 05:15:33;;;;;;;;;;;;;;;20.33;67.42;99274.27;1704107;84;20464;-70
2022/08/31 05:18:00;;;;;;;;;;;;;;;20.39;67.22;99273.33;1710881;84;21116;-69
2022/08/31 05:20:27;;;;;;;;;;;;;;;20.45;67.02;99271.83;1709484;82;20099;-70
2022/08/31 05:22:53;;;;;;;;;;;;;;;20.54;66.88;99270.41;1710837;84;20122;-69
2022/08/31 05:25:19;;;;;;;;;;;;;;;20.66;66.56;99270.36;1711355;84;20085;-71
2022/08/31 05:27:46;;;;;;;;;;;;;;;20.76;66.26;99274.08;1703155;83;20423;-72
2022/08/31 05:30:13;;;;;;;;;;;;;;;20.85;66.04;99274.01;1711127;83;21154;-70
2022/08/31 05:32:43;;;;;;;;;;;;;;;20.99;65.66;99273.71;1690397;82;20200;-68
2022/08/31 05:35:10;;;;;;;;;;;;;;;21.14;65.28;99276.72;1711199;83;20114;-69
2022/08/31 05:37:38;;;;;;;;;;;;;;;21.44;64.61;99278.06;1719391;82;20099;-68
2022/08/31 05:40:07;;;;;;;;;;;;;;;21.81;63.63;99272.98;1711077;84;20097;-70
2022/08/31 05:42:33;;;;;;;;;;;;;;;22.02;62.60;99271.42;1711733;82;21159;-71
2022/08/31 05:45:00;;;;;;;;;;;;;;;22.09;61.75;99271.53;1710987;84;20524;-69
2022/08/31 05:47:27;;;;;;;;;;;;;;;22.08;61.32;99273.94;1710476;82;20178;-72
2022/08/31 05:49:54;;;;;;;;;;;;;;;22.06;61.24;99281.50;1711064;84;20122;-72
2022/08/31 05:52:20;;;;;;;;;;;;;;;22.03;61.06;99279.28;1708169;82;20123;-70
2022/08/31 05:54:47;;;;;;;;;;;;;;;22.01;60.97;99276.02;1721930;82;20993;-68
2022/08/31 05:57:14;;;;;;;;;;;;;;;22.03;60.93;99282.55;1679155;83;20497;-69
2022/08/31 05:59:40;;;;;;;;;;;;;;;22.07;60.81;99281.80;1698526;84;20137;-70
2022/08/31 06:02:08;;;;;;;;;;;;;;;22.27;60.62;99279.06;1707325;82;20165;-69
2022/08/31 06:04:34;;;;;;;;;;;;;;;22.60;59.80;99287.11;1706252;82;20105;-70
2022/08/31 06:07:01;;;;;;;;;;;;;;;22.85;58.94;99285.25;1723785;82;21163;-70
2022/08/31 06:09:29;;;;;;;;;;;;;;;23.15;58.13;99284.23;1710569;84;20121;-70
2022/08/31 06:11:56;;;;;;;;;;;;;;;23.38;56.99;99288.02;1711142;82;20078;-71
2022/08/31 06:14:22;;;;;;;;;;;;;;;23.49;56.33;99287.01;1711270;82;20483;-70
2022/08/31 06:16:49;;;;;;;;;;;;;;;23.55;55.91;99287.88;1710247;83;20072;-71
2022/08/31 06:19:17;;;;;;;;;;;;;;;23.61;55.77;99282.78;1705890;82;21184;-70
2022/08/31 06:21:49;;;;;;;;;;;;;;;23.60;55.41;99285.20;1701184;83;20690;-69
2022/08/31 06:24:15;;;;;;;;;;;;;;;23.52;55.21;99289.21;1707605;83;20181;-70
2022/08/31 06:26:45;;;;;;;;;;;;;;;23.42;55.28;99285.59;1695623;83;20178;-70
2022/08/31 06:29:13;;;;;;;;;;;;;;;23.35;55.52;99290.67;1702343;84;20114;-69
2022/08/31 06:31:46;;;;;;;;;;;;;;;23.27;55.65;99295.21;1698486;83;22217;-69
2022/08/31 06:34:09;;;;;;;;;;;;;;;23.32;55.93;99290.36;1721018;83;20440;-71
2022/08/31 06:36:41;;;;;;;;;;;;;;;23.86;55.50;99289.75;1678865;84;20227;-70
2022/08/31 06:39:25;;;;;;;;;;;;;;;24.34;54.23;99287.38;1687217;83;20098;-70
2022/08/31 06:42:11;;;;;;;;;;;;;;;24.58;52.99;99293.46;1693493;83;20153;-69
2022/08/31 06:44:48;;;;;;;;;;;;;;;24.88;52.35;99286.53;1662486;85;21267;-69
2022/08/31 06:47:18;;;;;;;;;;;;;;;25.59;51.08;99284.78;1709991;83;20124;-70
2022/08/31 06:49:45;;;;;;;;;;;;;;;26.25;49.49;99292.37;1702671;84;20086;-68
2022/08/31 06:52:13;;;;;;;;;;;;;;;26.56;48.43;99291.73;1700883;83;20204;-70
2022/08/31 06:54:41;;;;;;;;;;;;;;;26.90;47.78;99295.43;1687182;83;20225;-68
2022/08/31 06:57:26;;;;;;;;;;;;;;;27.15;46.96;99304.02;1699774;83;21265;-68
2022/08/31 06:59:54;;;;;;;;;;;;;;;27.19;46.45;99303.19;1665195;84;20133;-71
2022/08/31 07:02:39;;;;;;;;;;;;;;;27.08;46.04;99303.52;1685123;84;20157;-70
2022/08/31 07:05:06;;;;;;;;;;;;;;;26.90;46.03;99309.08;1683394;84;20458;-69
2022/08/31 07:07:33;;;;;;;;;;;;;;;26.76;46.10;99318.92;1693769;84;20134;-69
2022/08/31 07:10:01;;;;;;;;;;;;;;;26.67;46.32;99307.76;1702615;84;21852;-69
2022/08/31 07:12:29;;;;;;;;;;;;;;;26.93;46.04;99301.13;1702158;83;20102;-69
2022/08/31 07:14:56;;;;;;;;;;;;;;;27.65;45.05;99296.87;1688095;83;20150;-69
2022/08/31 07:17:24;;;;;;;;;;;;;;;28.50;43.66;99293.03;1718315;82;20140;-72
2022/08/31 07:19:50;;;;;;;;;;;;;;;29.40;42.09;99289.69;1703218;84;20126;-72
2022/08/31 07:22:17;;;;;;;;;;;;;;;30.09;40.64;99290.17;1708044;82;21163;-72
2022/08/31 07:24:46;;;;;;;;;;;;;;;30.31;39.60;99291.70;1702885;82;20086;-70
2022/08/31 07:27:17;;;;;;;;;;;;;;;30.12;39.01;99289.58;1706316;83;20122;-70
2022/08/31 07:29:46;;;;;;;;;;;;;;;29.80;39.05;99294.52;1700786;82;20147;-69
2022/08/31 07:32:16;;;;;;;;;;;;;;;29.50;39.43;99288.70;1700591;82;20163;-70
2022/08/31 07:34:43;;;;;;;;;;;;;;;29.61;39.21;99291.55;1704563;84;21195;-70
2022/08/31 07:42:48;;;;;;;;;;;;;;;30.74;37.08;99291.42;1705874;82;20406;-68
2022/08/31 07:45:23;;;;;;;;;;;;;;;31.12;35.70;99295.55;1717270;81;20554;-68
2022/08/31 07:47:52;;;;;;;;;;;;;;;31.20;35.17;99298.94;1723392;82;21261;-69
2022/08/31 07:50:20;;;;;;;;;;;;;;;31.29;34.69;99299.03;1708950;82;20512;-69
2022/08/31 07:52:52;;;;;;;;;;;;;;;31.26;34.58;99289.44;1661437;82;20172;-69
2022/08/31 07:55:21;;;;;;;;;;;;;;;31.15;34.57;99289.45;1717102;82;20097;-68
2022/08/31 07:57:53;;;;;;;;;;;;;;;31.30;34.42;99290.46;1701421;82;20459;-69
2022/08/31 08:00:23;;;;;;;;;;;;;;;31.19;34.75;99290.44;1701111;82;21808;-69
2022/08/31 08:02:50;;;;;;;;;;;;;;;31.24;34.52;99288.95;1697996;82;20113;-69
2022/08/31 08:05:21;;;;;;;;;;;;;;;31.70;33.89;99279.08;1704469;82;20136;-69
2022/08/31 08:07:54;;;;;;;;;;;;;;;32.04;32.83;99275.20;1703854;83;20133;-68
2022/08/31 08:10:42;;;;;;;;;;;;;;;32.42;31.83;99274.70;1733750;82;20445;-69
2022/08/31 08:13:15;;;;;;;;;;;;;;;33.19;30.60;99275.73;1696482;84;21455;-69
2022/08/31 08:15:44;;;;;;;;;;;;;;;33.70;29.64;99274.12;1711929;82;20100;-67
2022/08/31 08:18:12;;;;;;;;;;;;;;;34.38;28.29;99278.66;1720677;82;20176;-68
2022/08/31 08:20:41;;;;;;;;;;;;;;;35.89;26.21;99274.93;1691679;82;20444;-69
2022/08/31 08:23:12;;;;;;;;;;;;;;;37.73;23.71;99270.34;1710926;84;20122;-68
2022/08/31 08:25:41;;;;;;;;;;;;;;;39.61;21.50;99269.56;1690449;83;20768;-69
2022/08/31 08:28:20;;;;;;;;;;;;;;;41.01;19.88;99262.94;1709835;82;20455;-69
2022/08/31 08:30:47;;;;;;;;;;;;;;;42.15;18.67;99263.73;1706054;82;20193;-70
2022/08/31 08:33:14;;;;;;;;;;;;;;;42.55;17.73;99261.50;1710969;84;20106;-69
2022/08/31 08:35:42;;;;;;;;;;;;;;;41.92;17.71;99263.89;1711316;84;20093;-69
2022/08/31 08:38:08;;;;;;;;;;;;;;;40.99;17.83;99268.06;1717631;82;21151;-68
2022/08/31 08:40:41;;;;;;;;;;;;;;;39.86;18.94;99275.07;1719606;82;20146;-68
2022/08/31 08:43:14;;;;;;;;;;;;;;;38.91;19.39;99269.64;1710597;83;20090;-69
2022/08/31 08:45:43;;;;;;;;;;;;;;;37.95;19.88;99273.94;1718201;82;20497;-68
2022/08/31 08:48:11;;;;;;;;;;;;;;;37.29;20.54;99278.56;1710140;82;20086;-69
2022/08/31 08:50:40;;;;;;;;;;;;;;;36.86;21.22;99279.80;1696449;83;21164;-70
2022/08/31 08:53:09;;;;;;;;;;;;;;;36.37;21.68;99281.14;1710804;79;20097;-68
2022/08/31 08:55:39;;;;;;;;;;;;;;;35.88;22.05;99284.37;1711430;77;20135;-66
2022/08/31 08:58:06;;;;;;;;;;;;;;;35.41;22.10;99282.22;1703057;79;20120;-66
2022/08/31 09:00:36;;;;;;;;;;;;;;;34.99;22.36;99282.75;1677137;79;20222;-67
2022/08/31 09:03:23;;;;;;;;;;;;;;;34.75;22.44;99288.31;1715529;77;21124;-66
2022/08/31 09:06:19;;;;;;;;;;;;;;;34.42;23.17;99292.84;1695333;84;20125;-66
2022/08/31 09:08:54;;;;;;;;;;;;;;;34.04;23.90;99293.37;1710899;83;20431;-66
2022/08/31 09:11:37;;;;;;;;;;;;;;;33.99;24.35;99288.84;1694603;82;37713;-66
2022/08/31 09:14:14;;;;;;;;;;;;;;;34.99;23.95;99297.95;1678456;84;20137;-66
2022/08/31 09:17:17;;;;;;;;;;;;;;;36.71;21.95;99290.98;1717671;82;21289;-68
2022/08/31 09:20:04;;;;;;;;;;;;;;;37.81;20.83;99284.61;1706251;83;20163;-66
2022/08/31 09:22:49;;;;;;;;;;;;;;;38.68;19.93;99282.00;1701942;84;20110;-67
2022/08/31 09:25:27;;;;;;;;;;;;;;;38.83;19.75;99282.58;1694910;84;20122;-67
2022/08/31 09:28:06;;;;;;;;;;;;;;;38.12;19.73;99289.67;1686564;82;20154;-67
2022/08/31 09:30:49;;;;;;;;;;;;;;;37.30;20.29;99297.41;1702132;84;21139;-67
2022/08/31 09:33:27;;;;;;;;;;;;;;;36.61;21.16;99298.98;1702758;84;20137;-67
2022/08/31 09:36:18;;;;;;;;;;;;;;;35.85;22.08;99296.72;1702811;83;20136;-69
2022/08/31 09:38:45;;;;;;;;;;;;;;;35.26;23.45;99302.97;1696342;83;20415;-65
2022/08/31 09:41:30;;;;;;;;;;;;;;;35.32;22.53;99303.02;1692659;83;20085;-67
2022/08/31 09:44:19;;;;;;;;;;;;;;;35.39;22.28;99302.46;1684666;84;21269;-66
2022/08/31 09:46:47;;;;;;;;;;;;;;;35.73;22.14;99301.63;1686413;84;20150;-66
2022/08/31 09:49:20;;;;;;;;;;;;;;;36.43;21.88;99295.00;1685503;83;20145;-68
2022/08/31 09:51:47;;;;;;;;;;;;;;;36.92;21.27;99297.81;1687923;83;20404;-66
2022/08/31 09:57:04;;;;;;;;;;;;;;;37.42;19.97;99291.27;1687477;84;21978;-67
2022/08/31 09:59:45;;;;;;;;;;;;;;;37.93;19.72;99285.41;1703088;84;20436;-67
2022/08/31 10:02:24;;;;;;;;;;;;;;;38.35;19.59;99285.75;1694946;83;20104;-67
2022/08/31 10:04:56;;;;;;;;;;;;;;;39.55;18.59;99280.80;1690447;84;20130;-68
2022/08/31 10:07:36;;;;;;;;;;;;;;;40.80;17.55;99284.09;1694218;83;20111;-67
2022/08/31 10:10:12;;;;;;;;;;;;;;;41.35;16.51;99276.95;1674864;84;22292;-68
2022/08/31 10:12:48;;;;;;;;;;;;;;;41.95;16.00;99268.71;1674402;84;20427;-67
2022/08/31 10:15:18;;;;;;;;;;;;;;;42.75;15.53;99274.83;1675051;84;20100;-67
2022/08/31 10:18:01;;;;;;;;;;;;;;;43.21;15.09;99275.70;1695377;83;20114;-67
2022/08/31 10:20:30;;;;;;;;;;;;;;;43.60;14.49;99280.31;1675118;84;20104;-66
2022/08/31 10:23:07;;;;;;;;;;;;;;;43.43;14.18;99275.46;1675171;84;20860;-67
2022/08/31 10:25:41;;;;;;;;;;;;;;;43.01;14.29;99275.22;1694139;84;20207;-68
2022/08/31 10:28:14;;;;;;;;;;;;;;;42.73;14.29;99275.83;1690754;84;20096;-67
2022/08/31 10:30:54;;;;;;;;;;;;;;;42.60;14.40;99276.52;1691073;84;20500;-65
2022/08/31 10:33:24;;;;;;;;;;;;;;;42.16;14.52;99273.11;1700317;83;20412;-67
2022/08/31 10:35:56;;;;;;;;;;;;;;;42.19;14.79;99270.14;1699577;83;21090;-66
2022/08/31 10:38:35;;;;;;;;;;;;;;;42.84;14.39;99266.11;1694414;83;20110;-67
2022/08/31 10:41:17;;;;;;;;;;;;;;;43.17;14.47;99263.71;1703259;84;20118;-67
2022/08/31 10:43:47;;;;;;;;;;;;;;;43.80;14.32;99271.61;1696950;84;20453;-66
2022/08/31 10:46:14;;;;;;;;;;;;;;;43.83;14.01;99277.82;1696994;83;20186;-67
2022/08/31 10:48:45;;;;;;;;;;;;;;;42.61;14.44;99280.31;1703245;84;21160;-67
2022/08/31 10:51:22;;;;;;;;;;;;;;;40.81;15.38;99280.11;1702867;84;20126;-67
2022/08/31 10:54:05;;;;;;;;;;;;;;;39.58;16.36;99279.45;1703882;83;20098;-67
2022/08/31 10:56:43;;;;;;;;;;;;;;;38.94;16.91;99282.02;1701289;84;20577;-68
2022/08/31 10:59:29;;;;;;;;;;;;;;;38.04;17.34;99275.98;1684220;83;20118;-67
2022/08/31 11:02:19;;;;;;;;;;;;;;;37.22;18.11;99276.97;1703299;84;21238;-67
2022/08/31 11:04:59;;;;;;;;;;;;;;;37.28;18.28;99263.67;1703220;84;20517;-67
2022/08/31 11:07:33;;;;;;;;;;;;;;;38.01;17.75;99264.20;1703375;84;20086;-67
2022/08/31 11:10:21;;;;;;;;;;;;;;;38.92;16.95;99262.11;1703395;84;20090;-68
2022/08/31 11:12:55;;;;;;;;;;;;;;;39.34;16.68;99260.30;1701528;84;20119;-68
2022/08/31 11:15:42;;;;;;;;;;;;;;;39.10;16.83;99266.09;1701622;83;21182;-67
2022/08/31 11:18:13;;;;;;;;;;;;;;;38.60;17.25;99259.37;1699937;84;20118;-69
2022/08/31 11:21:00;;;;;;;;;;;;;;;37.80;18.03;99262.20;1711053;83;20105;-66
2022/08/31 11:23:55;;;;;;;;;;;;;;;37.07;18.60;99254.95;1711081;83;20097;-69
2022/08/31 11:26:34;;;;;;;;;;;;;;;36.07;19.39;99260.92;1691378;84;20086;-67
2022/08/31 11:29:12;;;;;;;;;;;;;;;34.99;20.73;99263.41;1710501;84;21128;-67
2022/08/31 11:31:39;;;;;;;;;;;;;;;34.20;21.37;99261.93;1710665;84;20115;-66
2022/08/31 11:34:12;;;;;;;;;;;;;;;33.54;21.80;99258.06;1711042;84;20171;-67
2022/08/31 11:36:47;;;;;;;;;;;;;;;32.96;22.55;99257.13;1690546;84;20122;-66
2022/08/31 11:39:16;;;;;;;;;;;;;;;32.38;23.07;99260.19;1711074;83;20130;-67
2022/08/31 11:41:46;;;;;;;;;;;;;;;32.05;23.71;99258.11;1710983;83;21339;-66
2022/08/31 11:44:32;;;;;;;;;;;;;;;31.75;24.19;99241.83;1711293;83;20093;-66
2022/08/31 11:47:06;;;;;;;;;;;;;;;31.50;24.77;99246.02;1689393;84;20094;-68
2022/08/31 11:49:37;;;;;;;;;;;;;;;31.29;25.37;99248.19;1702403;83;20220;-67
2022/08/31 11:52:09;;;;;;;;;;;;;;;31.08;25.32;99246.45;1711015;83;20117;-67
2022/08/31 11:54:40;;;;;;;;;;;;;;;30.79;25.22;99244.64;1710827;84;20831;-68
2022/08/31 11:57:14;;;;;;;;;;;;;;;30.37;25.19;99242.50;1706004;84;20107;-67
2022/08/31 11:59:40;;;;;;;;;;;;;;;29.99;25.77;99239.63;1697088;84;20085;-68
2022/08/31 12:02:22;;;;;;;;;;;;;;;29.74;26.39;99234.59;1710986;84;20078;-67
2022/08/31 12:05:01;;;;;;;;;;;;;;;29.52;26.89;99228.38;1711108;84;20435;-68
2022/08/31 12:07:34;;;;;;;;;;;;;;;29.28;27.31;99232.59;1711001;83;21117;-67
2022/08/31 12:10:15;;;;;;;;;;;;;;;29.06;27.59;99223.34;1711430;83;20444;-66
2022/08/31 12:13:08;;;;;;;;;;;;;;;28.80;28.15;99235.77;1711137;83;20420;-67
2022/08/31 12:15:59;;;;;;;;;;;;;;;28.61;28.59;99231.61;1711074;84;20113;-66
2022/08/31 12:18:30;;;;;;;;;;;;;;;28.41;29.01;99231.33;1681605;84;20116;-67
2022/08/31 12:24:11;;;;;;;;;;;;;;;28.18;29.79;99226.11;1703089;84;20571;-66
2022/08/31 12:26:58;;;;;;;;;;;;;;;28.24;29.89;99221.94;1703240;84;20436;-68
2022/08/31 12:29:36;;;;;;;;;;;;;;;28.26;29.82;99220.58;1703339;83;20090;-67
2022/08/31 12:32:12;;;;;;;;;;;;;;;28.24;30.22;99223.31;1703302;84;20436;-67
2022/08/31 12:34:51;;;;;;;;;;;;;;;28.16;30.12;99227.50;1703114;84;21162;-65
2022/08/31 12:37:27;;;;;;;;;;;;;;;27.94;30.43;99230.73;1702837;84;20102;-66
2022/08/31 12:40:09;;;;;;;;;;;;;;;27.71;30.93;99230.70;1702405;84;20105;-66
2022/08/31 12:43:00;;;;;;;;;;;;;;;27.54;31.29;99229.20;1703206;84;20090;-67
2022/08/31 12:45:39;;;;;;;;;;;;;;;27.39;31.54;99225.23;1688148;84;20090;-68
2022/08/31 12:48:26;;;;;;;;;;;;;;;27.26;31.76;99233.22;1702918;83;21119;-65
2022/08/31 12:51:00;;;;;;;;;;;;;;;27.10;31.88;99224.88;1703050;83;20165;-65
2022/08/31 12:53:36;;;;;;;;;;;;;;;27.00;32.34;99216.76;1660851;84;20114;-67
2022/08/31 12:56:27;;;;;;;;;;;;;;;26.98;32.44;99226.03;1703161;84;20455;-68
2022/08/31 12:59:24;;;;;;;;;;;;;;;27.02;32.43;99229.56;1700507;84;20144;-67
2022/08/31 13:01:51;;;;;;;;;;;;;;;27.03;32.32;99224.38;1703215;84;21212;-69
2022/08/31 13:04:19;;;;;;;;;;;;;;;27.11;32.17;99219.69;1703070;83;20420;-67
2022/08/31 13:06:47;;;;;;;;;;;;;;;27.21;32.06;99210.88;1703112;84;20118;-67
2022/08/31 13:09:25;;;;;;;;;;;;;;;27.31;31.87;99208.61;1703077;84;20443;-68
2022/08/31 13:11:53;;;;;;;;;;;;;;;27.30;31.67;99209.16;1703163;84;20435;-68
2022/08/31 13:14:23;;;;;;;;;;;;;;;27.24;31.68;99216.31;1703113;84;21254;-67
2022/08/31 13:16:55;;;;;;;;;;;;;;;27.17;31.60;99214.44;1702938;84;20126;-68
2022/08/31 13:19:28;;;;;;;;;;;;;;;27.06;31.19;99211.54;1679011;84;20416;-67
2022/08/31 13:22:03;;;;;;;;;;;;;;;27.00;31.23;99219.48;1703154;84;20435;-67
2022/08/31 13:24:33;;;;;;;;;;;;;;;26.98;31.57;99212.14;1703220;84;20435;-67
2022/08/31 13:27:05;;;;;;;;;;;;;;;27.02;31.69;99217.28;1703342;83;21272;-66